sensor_id;sensor_type;location;lat;lon;timestamp;P1;durP1;ratioP1;P2;durP2;ratioP2
15929;SDS011;8064;51.142;4.780;2024-03-02T00:02:12;0.50;;;0.30;;
15929;SDS011;8064;51.142;4.780;2024-03-02T00:04:39;0.40;;;0.20;;
15929;SDS011;8064;51.142;4.780;2024-03-02T00:07:06;0.20;;;0.20;;
15929;SDS011;8064;51.142;4.780;2024-03-02T00:09:32;0.70;;;0.30;;
15929;SDS011;8064;51.142;4.780;2024-03-02T00:11:59;0.70;;;0.30;;
15929;SDS011;8064;51.142;4.780;2024-03-02T00:14:28;0.23;;;0.23;;
15929;SDS011;8064;51.142;4.780;2024-03-02T00:16:55;0.63;;;0.33;;
15929;SDS011;8064;51.142;4.780;2024-03-02T00:19:21;0.80;;;0.20;;
15929;SDS011;8064;51.142;4.780;2024-03-02T00:21:47;1.53;;;0.30;;
15929;SDS011;8064;51.142;4.780;2024-03-02T00:24:18;0.53;;;0.20;;
15929;SDS011;8064;51.142;4.780;2024-03-02T00:26:47;0.30;;;0.30;;
15929;SDS011;8064;51.142;4.780;2024-03-02T00:29:14;0.53;;;0.20;;
15929;SDS011;8064;51.142;4.780;2024-03-02T00:31:43;0.20;;;0.20;;
15929;SDS011;8064;51.142;4.780;2024-03-02T00:34:09;0.30;;;0.20;;
15929;SDS011;8064;51.142;4.780;2024-03-02T00:36:38;0.67;;;0.33;;
15929;SDS011;8064;51.142;4.780;2024-03-02T00:39:04;0.10;;;0.10;;
15929;SDS011;8064;51.142;4.780;2024-03-02T00:41:33;0.40;;;0.30;;
15929;SDS011;8064;51.142;4.780;2024-03-02T00:46:33;0.50;;;0.20;;
15929;SDS011;8064;51.142;4.780;2024-03-02T00:49:00;0.80;;;0.30;;
15929;SDS011;8064;51.142;4.780;2024-03-02T00:51:29;0.60;;;0.40;;
15929;SDS011;8064;51.142;4.780;2024-03-02T00:53:57;1.93;;;0.37;;
15929;SDS011;8064;51.142;4.780;2024-03-02T00:56:25;0.70;;;0.23;;
15929;SDS011;8064;51.142;4.780;2024-03-02T00:58:51;0.30;;;0.30;;
15929;SDS011;8064;51.142;4.780;2024-03-02T01:01:17;1.00;;;0.30;;
15929;SDS011;8064;51.142;4.780;2024-03-02T01:03:45;1.37;;;0.40;;
15929;SDS011;8064;51.142;4.780;2024-03-02T01:06:10;0.40;;;0.20;;
15929;SDS011;8064;51.142;4.780;2024-03-02T01:08:36;0.47;;;0.30;;
15929;SDS011;8064;51.142;4.780;2024-03-02T01:11:03;0.73;;;0.27;;
15929;SDS011;8064;51.142;4.780;2024-03-02T01:13:29;0.20;;;0.20;;
15929;SDS011;8064;51.142;4.780;2024-03-02T01:15:56;0.37;;;0.23;;
15929;SDS011;8064;51.142;4.780;2024-03-02T01:18:22;1.80;;;0.30;;
15929;SDS011;8064;51.142;4.780;2024-03-02T01:20:48;1.40;;;0.30;;
15929;SDS011;8064;51.142;4.780;2024-03-02T01:23:18;0.40;;;0.20;;
15929;SDS011;8064;51.142;4.780;2024-03-02T01:25:44;0.53;;;0.20;;
15929;SDS011;8064;51.142;4.780;2024-03-02T01:28:11;0.10;;;0.10;;
15929;SDS011;8064;51.142;4.780;2024-03-02T01:30:37;0.50;;;0.20;;
15929;SDS011;8064;51.142;4.780;2024-03-02T01:33:03;1.00;;;0.30;;
15929;SDS011;8064;51.142;4.780;2024-03-02T01:35:30;0.63;;;0.10;;
15929;SDS011;8064;51.142;4.780;2024-03-02T01:37:56;1.33;;;0.30;;
15929;SDS011;8064;51.142;4.780;2024-03-02T01:40:22;1.07;;;0.40;;
15929;SDS011;8064;51.142;4.780;2024-03-02T01:42:51;0.57;;;0.30;;
15929;SDS011;8064;51.142;4.780;2024-03-02T01:45:19;0.30;;;0.20;;
15929;SDS011;8064;51.142;4.780;2024-03-02T01:47:45;0.20;;;0.20;;
15929;SDS011;8064;51.142;4.780;2024-03-02T01:50:11;0.50;;;0.30;;
15929;SDS011;8064;51.142;4.780;2024-03-02T01:52:37;0.47;;;0.30;;
15929;SDS011;8064;51.142;4.780;2024-03-02T01:55:03;1.03;;;0.23;;
15929;SDS011;8064;51.142;4.780;2024-03-02T01:57:29;0.67;;;0.30;;
15929;SDS011;8064;51.142;4.780;2024-03-02T01:59:55;0.97;;;0.40;;
15929;SDS011;8064;51.142;4.780;2024-03-02T02:02:21;0.63;;;0.30;;
15929;SDS011;8064;51.142;4.780;2024-03-02T02:04:47;0.40;;;0.30;;
15929;SDS011;8064;51.142;4.780;2024-03-02T02:07:13;0.40;;;0.20;;
15929;SDS011;8064;51.142;4.780;2024-03-02T02:09:40;0.70;;;0.33;;
15929;SDS011;8064;51.142;4.780;2024-03-02T02:12:07;0.50;;;0.30;;
15929;SDS011;8064;51.142;4.780;2024-03-02T02:14:33;0.73;;;0.30;;
15929;SDS011;8064;51.142;4.780;2024-03-02T02:16:59;0.87;;;0.27;;
15929;SDS011;8064;51.142;4.780;2024-03-02T02:19:25;0.47;;;0.13;;
15929;SDS011;8064;51.142;4.780;2024-03-02T02:21:50;0.20;;;0.20;;
15929;SDS011;8064;51.142;4.780;2024-03-02T02:24:16;0.67;;;0.27;;
15929;SDS011;8064;51.142;4.780;2024-03-02T02:26:42;0.30;;;0.20;;
15929;SDS011;8064;51.142;4.780;2024-03-02T02:29:08;0.60;;;0.40;;
15929;SDS011;8064;51.142;4.780;2024-03-02T02:31:39;0.60;;;0.27;;
15929;SDS011;8064;51.142;4.780;2024-03-02T02:34:06;1.47;;;0.60;;
15929;SDS011;8064;51.142;4.780;2024-03-02T02:36:32;0.53;;;0.20;;
15929;SDS011;8064;51.142;4.780;2024-03-02T02:38:59;1.30;;;0.37;;
15929;SDS011;8064;51.142;4.780;2024-03-02T02:41:29;1.00;;;0.30;;
15929;SDS011;8064;51.142;4.780;2024-03-02T02:43:55;0.77;;;0.20;;
15929;SDS011;8064;51.142;4.780;2024-03-02T02:46:21;0.63;;;0.20;;
15929;SDS011;8064;51.142;4.780;2024-03-02T02:48:47;0.97;;;0.43;;
15929;SDS011;8064;51.142;4.780;2024-03-02T02:51:13;0.53;;;0.37;;
15929;SDS011;8064;51.142;4.780;2024-03-02T02:53:39;0.50;;;0.20;;
15929;SDS011;8064;51.142;4.780;2024-03-02T02:56:06;2.90;;;0.37;;
15929;SDS011;8064;51.142;4.780;2024-03-02T02:58:32;1.17;;;0.40;;
15929;SDS011;8064;51.142;4.780;2024-03-02T03:00:58;0.70;;;0.40;;
15929;SDS011;8064;51.142;4.780;2024-03-02T03:03:23;0.63;;;0.20;;
15929;SDS011;8064;51.142;4.780;2024-03-02T03:05:49;1.03;;;0.40;;
15929;SDS011;8064;51.142;4.780;2024-03-02T03:08:15;0.70;;;0.40;;
15929;SDS011;8064;51.142;4.780;2024-03-02T03:10:41;2.10;;;0.60;;
15929;SDS011;8064;51.142;4.780;2024-03-02T03:13:07;0.40;;;0.20;;
15929;SDS011;8064;51.142;4.780;2024-03-02T03:15:35;3.40;;;0.30;;
15929;SDS011;8064;51.142;4.780;2024-03-02T03:18:02;0.63;;;0.30;;
15929;SDS011;8064;51.142;4.780;2024-03-02T03:20:29;0.50;;;0.30;;
15929;SDS011;8064;51.142;4.780;2024-03-02T03:22:55;1.70;;;0.53;;
15929;SDS011;8064;51.142;4.780;2024-03-02T03:25:21;1.23;;;0.40;;
15929;SDS011;8064;51.142;4.780;2024-03-02T03:27:47;1.83;;;0.30;;
15929;SDS011;8064;51.142;4.780;2024-03-02T03:30:13;1.57;;;0.40;;
15929;SDS011;8064;51.142;4.780;2024-03-02T03:32:39;1.10;;;0.30;;
15929;SDS011;8064;51.142;4.780;2024-03-02T03:35:05;2.63;;;0.40;;
15929;SDS011;8064;51.142;4.780;2024-03-02T03:37:31;1.13;;;0.40;;
15929;SDS011;8064;51.142;4.780;2024-03-02T03:39:59;1.07;;;0.20;;
15929;SDS011;8064;51.142;4.780;2024-03-02T03:42:26;2.50;;;0.30;;
15929;SDS011;8064;51.142;4.780;2024-03-02T03:44:52;1.90;;;0.50;;
15929;SDS011;8064;51.142;4.780;2024-03-02T03:47:17;1.03;;;0.30;;
15929;SDS011;8064;51.142;4.780;2024-03-02T03:49:43;0.30;;;0.20;;
15929;SDS011;8064;51.142;4.780;2024-03-02T03:52:09;2.20;;;0.33;;
15929;SDS011;8064;51.142;4.780;2024-03-02T03:54:35;0.93;;;0.30;;
15929;SDS011;8064;51.142;4.780;2024-03-02T03:57:02;1.73;;;0.40;;
15929;SDS011;8064;51.142;4.780;2024-03-02T03:59:28;1.20;;;0.30;;
15929;SDS011;8064;51.142;4.780;2024-03-02T04:01:54;3.07;;;0.40;;
15929;SDS011;8064;51.142;4.780;2024-03-02T04:04:20;0.90;;;0.30;;
15929;SDS011;8064;51.142;4.780;2024-03-02T04:06:45;1.00;;;0.40;;
15929;SDS011;8064;51.142;4.780;2024-03-02T04:09:11;1.13;;;0.30;;
15929;SDS011;8064;51.142;4.780;2024-03-02T04:11:37;0.33;;;0.20;;
15929;SDS011;8064;51.142;4.780;2024-03-02T04:14:03;0.87;;;0.40;;
15929;SDS011;8064;51.142;4.780;2024-03-02T04:16:31;1.73;;;0.40;;
15929;SDS011;8064;51.142;4.780;2024-03-02T04:18:56;2.97;;;0.70;;
15929;SDS011;8064;51.142;4.780;2024-03-02T04:21:22;0.77;;;0.33;;
15929;SDS011;8064;51.142;4.780;2024-03-02T04:23:48;2.57;;;0.40;;
15929;SDS011;8064;51.142;4.780;2024-03-02T04:26:14;1.03;;;0.30;;
15929;SDS011;8064;51.142;4.780;2024-03-02T04:28:44;0.93;;;0.20;;
15929;SDS011;8064;51.142;4.780;2024-03-02T04:31:10;2.13;;;0.40;;
15929;SDS011;8064;51.142;4.780;2024-03-02T04:33:36;1.87;;;0.50;;
15929;SDS011;8064;51.142;4.780;2024-03-02T04:36:01;1.03;;;0.27;;
15929;SDS011;8064;51.142;4.780;2024-03-02T04:38:27;2.73;;;0.50;;
15929;SDS011;8064;51.142;4.780;2024-03-02T04:40:53;1.80;;;0.57;;
15929;SDS011;8064;51.142;4.780;2024-03-02T04:43:19;1.83;;;0.50;;
15929;SDS011;8064;51.142;4.780;2024-03-02T04:45:45;2.23;;;0.40;;
15929;SDS011;8064;51.142;4.780;2024-03-02T04:48:11;1.57;;;0.47;;
15929;SDS011;8064;51.142;4.780;2024-03-02T04:50:36;1.60;;;0.50;;
15929;SDS011;8064;51.142;4.780;2024-03-02T04:53:02;1.37;;;0.40;;
15929;SDS011;8064;51.142;4.780;2024-03-02T04:55:28;3.23;;;0.40;;
15929;SDS011;8064;51.142;4.780;2024-03-02T04:57:54;2.73;;;0.50;;
15929;SDS011;8064;51.142;4.780;2024-03-02T05:00:20;2.53;;;0.50;;
15929;SDS011;8064;51.142;4.780;2024-03-02T05:02:46;1.10;;;0.80;;
15929;SDS011;8064;51.142;4.780;2024-03-02T05:05:12;0.30;;;0.30;;
15929;SDS011;8064;51.142;4.780;2024-03-02T05:07:40;2.20;;;0.47;;
15929;SDS011;8064;51.142;4.780;2024-03-02T05:10:07;2.00;;;0.20;;
15929;SDS011;8064;51.142;4.780;2024-03-02T05:12:33;0.60;;;0.30;;
15929;SDS011;8064;51.142;4.780;2024-03-02T05:15:20;1.93;;;0.43;;
15929;SDS011;8064;51.142;4.780;2024-03-02T05:17:46;1.57;;;0.30;;
15929;SDS011;8064;51.142;4.780;2024-03-02T05:20:12;5.20;;;0.40;;
15929;SDS011;8064;51.142;4.780;2024-03-02T05:22:38;0.67;;;0.30;;
15929;SDS011;8064;51.142;4.780;2024-03-02T05:25:04;2.73;;;0.50;;
15929;SDS011;8064;51.142;4.780;2024-03-02T05:27:31;1.67;;;0.40;;
15929;SDS011;8064;51.142;4.780;2024-03-02T05:29:58;0.50;;;0.30;;
15929;SDS011;8064;51.142;4.780;2024-03-02T05:32:24;1.53;;;0.60;;
15929;SDS011;8064;51.142;4.780;2024-03-02T05:34:50;1.53;;;0.30;;
15929;SDS011;8064;51.142;4.780;2024-03-02T05:37:16;1.00;;;0.40;;
15929;SDS011;8064;51.142;4.780;2024-03-02T05:39:42;0.60;;;0.20;;
15929;SDS011;8064;51.142;4.780;2024-03-02T05:42:09;1.80;;;0.70;;
15929;SDS011;8064;51.142;4.780;2024-03-02T05:44:35;1.90;;;0.40;;
15929;SDS011;8064;51.142;4.780;2024-03-02T05:47:01;2.07;;;0.50;;
15929;SDS011;8064;51.142;4.780;2024-03-02T05:49:28;1.20;;;0.40;;
15929;SDS011;8064;51.142;4.780;2024-03-02T05:51:54;1.60;;;0.50;;
15929;SDS011;8064;51.142;4.780;2024-03-02T05:54:19;1.70;;;0.43;;
15929;SDS011;8064;51.142;4.780;2024-03-02T05:56:45;3.10;;;0.50;;
15929;SDS011;8064;51.142;4.780;2024-03-02T05:59:11;6.00;;;0.53;;
15929;SDS011;8064;51.142;4.780;2024-03-02T06:01:44;1.73;;;0.40;;
15929;SDS011;8064;51.142;4.780;2024-03-02T06:04:12;2.77;;;0.43;;
15929;SDS011;8064;51.142;4.780;2024-03-02T06:06:38;2.40;;;0.50;;
15929;SDS011;8064;51.142;4.780;2024-03-02T06:09:05;1.60;;;0.50;;
15929;SDS011;8064;51.142;4.780;2024-03-02T06:11:33;1.17;;;0.40;;
15929;SDS011;8064;51.142;4.780;2024-03-02T06:14:01;0.80;;;0.40;;
15929;SDS011;8064;51.142;4.780;2024-03-02T06:16:27;1.53;;;0.50;;
15929;SDS011;8064;51.142;4.780;2024-03-02T06:18:53;2.47;;;0.53;;
15929;SDS011;8064;51.142;4.780;2024-03-02T06:21:19;1.87;;;0.70;;
15929;SDS011;8064;51.142;4.780;2024-03-02T06:23:45;2.57;;;0.57;;
15929;SDS011;8064;51.142;4.780;2024-03-02T06:26:11;0.77;;;0.40;;
15929;SDS011;8064;51.142;4.780;2024-03-02T06:28:37;2.43;;;0.50;;
15929;SDS011;8064;51.142;4.780;2024-03-02T06:31:03;1.13;;;0.50;;
15929;SDS011;8064;51.142;4.780;2024-03-02T06:33:29;3.27;;;1.13;;
15929;SDS011;8064;51.142;4.780;2024-03-02T06:35:55;0.87;;;0.40;;
15929;SDS011;8064;51.142;4.780;2024-03-02T06:38:21;1.57;;;0.50;;
15929;SDS011;8064;51.142;4.780;2024-03-02T06:40:46;1.37;;;0.50;;
15929;SDS011;8064;51.142;4.780;2024-03-02T06:43:12;1.57;;;0.50;;
15929;SDS011;8064;51.142;4.780;2024-03-02T06:45:38;2.20;;;0.50;;
15929;SDS011;8064;51.142;4.780;2024-03-02T06:48:04;2.23;;;0.50;;
15929;SDS011;8064;51.142;4.780;2024-03-02T06:50:30;2.07;;;0.60;;
15929;SDS011;8064;51.142;4.780;2024-03-02T06:52:56;2.20;;;0.70;;
15929;SDS011;8064;51.142;4.780;2024-03-02T06:55:22;2.20;;;0.60;;
15929;SDS011;8064;51.142;4.780;2024-03-02T06:57:49;1.67;;;0.60;;
15929;SDS011;8064;51.142;4.780;2024-03-02T07:00:15;0.70;;;0.50;;
15929;SDS011;8064;51.142;4.780;2024-03-02T07:02:43;2.10;;;0.60;;
15929;SDS011;8064;51.142;4.780;2024-03-02T07:05:09;1.60;;;0.57;;
15929;SDS011;8064;51.142;4.780;2024-03-02T07:07:36;1.57;;;0.50;;
15929;SDS011;8064;51.142;4.780;2024-03-02T07:10:03;2.07;;;0.60;;
15929;SDS011;8064;51.142;4.780;2024-03-02T07:12:29;4.10;;;0.60;;
15929;SDS011;8064;51.142;4.780;2024-03-02T07:14:56;2.10;;;0.70;;
15929;SDS011;8064;51.142;4.780;2024-03-02T07:17:36;2.73;;;0.80;;
15929;SDS011;8064;51.142;4.780;2024-03-02T07:20:02;0.80;;;0.50;;
15929;SDS011;8064;51.142;4.780;2024-03-02T07:22:29;2.27;;;0.60;;
15929;SDS011;8064;51.142;4.780;2024-03-02T07:24:55;3.93;;;0.70;;
15929;SDS011;8064;51.142;4.780;2024-03-02T07:27:20;0.97;;;0.67;;
15929;SDS011;8064;51.142;4.780;2024-03-02T07:29:46;1.73;;;0.40;;
15929;SDS011;8064;51.142;4.780;2024-03-02T07:32:12;2.37;;;0.57;;
15929;SDS011;8064;51.142;4.780;2024-03-02T07:34:38;2.17;;;0.80;;
15929;SDS011;8064;51.142;4.780;2024-03-02T07:37:04;2.60;;;0.50;;
15929;SDS011;8064;51.142;4.780;2024-03-02T07:39:30;1.47;;;0.60;;
15929;SDS011;8064;51.142;4.780;2024-03-02T07:41:56;2.23;;;0.60;;
15929;SDS011;8064;51.142;4.780;2024-03-02T07:44:22;2.80;;;0.70;;
15929;SDS011;8064;51.142;4.780;2024-03-02T07:46:48;2.97;;;0.77;;
15929;SDS011;8064;51.142;4.780;2024-03-02T07:49:15;1.43;;;0.67;;
15929;SDS011;8064;51.142;4.780;2024-03-02T07:51:42;4.43;;;1.00;;
15929;SDS011;8064;51.142;4.780;2024-03-02T07:54:07;2.53;;;0.80;;
15929;SDS011;8064;51.142;4.780;2024-03-02T07:56:33;2.73;;;1.00;;
15929;SDS011;8064;51.142;4.780;2024-03-02T07:59:01;1.67;;;0.67;;
15929;SDS011;8064;51.142;4.780;2024-03-02T08:01:29;2.07;;;0.80;;
15929;SDS011;8064;51.142;4.780;2024-03-02T08:03:57;3.60;;;1.47;;
15929;SDS011;8064;51.142;4.780;2024-03-02T08:06:26;3.37;;;0.90;;
15929;SDS011;8064;51.142;4.780;2024-03-02T08:08:53;2.00;;;0.80;;
15929;SDS011;8064;51.142;4.780;2024-03-02T08:11:20;4.60;;;0.90;;
15929;SDS011;8064;51.142;4.780;2024-03-02T08:13:47;2.93;;;0.80;;
15929;SDS011;8064;51.142;4.780;2024-03-02T08:16:13;5.20;;;0.83;;
15929;SDS011;8064;51.142;4.780;2024-03-02T08:18:40;2.20;;;0.53;;
15929;SDS011;8064;51.142;4.780;2024-03-02T08:21:07;2.10;;;0.77;;
15929;SDS011;8064;51.142;4.780;2024-03-02T08:23:33;3.43;;;0.70;;
15929;SDS011;8064;51.142;4.780;2024-03-02T08:25:59;3.27;;;0.73;;
15929;SDS011;8064;51.142;4.780;2024-03-02T08:28:25;3.13;;;1.00;;
15929;SDS011;8064;51.142;4.780;2024-03-02T08:30:51;2.60;;;0.93;;
15929;SDS011;8064;51.142;4.780;2024-03-02T08:33:16;2.10;;;0.73;;
15929;SDS011;8064;51.142;4.780;2024-03-02T08:35:42;1.57;;;0.63;;
15929;SDS011;8064;51.142;4.780;2024-03-02T08:38:08;1.90;;;0.90;;
15929;SDS011;8064;51.142;4.780;2024-03-02T08:40:34;3.00;;;0.90;;
15929;SDS011;8064;51.142;4.780;2024-03-02T08:43:01;2.53;;;0.73;;
15929;SDS011;8064;51.142;4.780;2024-03-02T08:45:26;2.63;;;1.00;;
15929;SDS011;8064;51.142;4.780;2024-03-02T08:47:52;2.80;;;1.07;;
15929;SDS011;8064;51.142;4.780;2024-03-02T08:50:18;3.40;;;0.90;;
15929;SDS011;8064;51.142;4.780;2024-03-02T08:52:44;2.80;;;0.90;;
15929;SDS011;8064;51.142;4.780;2024-03-02T08:55:09;3.70;;;0.83;;
15929;SDS011;8064;51.142;4.780;2024-03-02T08:57:36;3.00;;;0.70;;
15929;SDS011;8064;51.142;4.780;2024-03-02T09:00:02;3.13;;;0.90;;
15929;SDS011;8064;51.142;4.780;2024-03-02T09:02:30;5.23;;;1.00;;
15929;SDS011;8064;51.142;4.780;2024-03-02T09:04:56;2.87;;;0.87;;
15929;SDS011;8064;51.142;4.780;2024-03-02T09:07:22;4.90;;;0.80;;
15929;SDS011;8064;51.142;4.780;2024-03-02T09:09:48;4.53;;;0.93;;
15929;SDS011;8064;51.142;4.780;2024-03-02T09:12:14;4.57;;;1.10;;
15929;SDS011;8064;51.142;4.780;2024-03-02T09:14:40;2.93;;;0.80;;
15929;SDS011;8064;51.142;4.780;2024-03-02T09:17:06;2.90;;;0.90;;
15929;SDS011;8064;51.142;4.780;2024-03-02T09:19:34;2.67;;;1.00;;
15929;SDS011;8064;51.142;4.780;2024-03-02T09:22:00;3.67;;;1.00;;
15929;SDS011;8064;51.142;4.780;2024-03-02T09:24:28;4.30;;;1.00;;
15929;SDS011;8064;51.142;4.780;2024-03-02T09:26:53;2.30;;;0.80;;
15929;SDS011;8064;51.142;4.780;2024-03-02T09:29:19;2.93;;;0.73;;
15929;SDS011;8064;51.142;4.780;2024-03-02T09:31:45;4.10;;;0.90;;
15929;SDS011;8064;51.142;4.780;2024-03-02T09:34:12;5.83;;;0.80;;
15929;SDS011;8064;51.142;4.780;2024-03-02T09:36:39;3.23;;;0.90;;
15929;SDS011;8064;51.142;4.780;2024-03-02T09:39:07;4.20;;;0.80;;
15929;SDS011;8064;51.142;4.780;2024-03-02T09:41:34;2.30;;;0.90;;
15929;SDS011;8064;51.142;4.780;2024-03-02T09:44:02;2.77;;;0.70;;
15929;SDS011;8064;51.142;4.780;2024-03-02T09:46:28;3.87;;;0.80;;
15929;SDS011;8064;51.142;4.780;2024-03-02T09:48:54;4.23;;;0.90;;
15929;SDS011;8064;51.142;4.780;2024-03-02T09:51:20;5.73;;;1.30;;
15929;SDS011;8064;51.142;4.780;2024-03-02T09:53:45;3.50;;;0.80;;
15929;SDS011;8064;51.142;4.780;2024-03-02T09:56:12;4.30;;;1.47;;
15929;SDS011;8064;51.142;4.780;2024-03-02T09:58:38;5.40;;;2.70;;
15929;SDS011;8064;51.142;4.780;2024-03-02T10:01:06;4.17;;;1.70;;
15929;SDS011;8064;51.142;4.780;2024-03-02T10:03:32;4.23;;;1.70;;
15929;SDS011;8064;51.142;4.780;2024-03-02T10:08:45;5.18;;;1.50;;
15929;SDS011;8064;51.142;4.780;2024-03-02T10:11:14;2.75;;;1.05;;
15929;SDS011;8064;51.142;4.780;2024-03-02T10:14:11;3.00;;;0.90;;
15929;SDS011;8064;51.142;4.780;2024-03-02T10:16:38;2.60;;;0.93;;
15929;SDS011;8064;51.142;4.780;2024-03-02T10:19:16;5.15;;;1.50;;
15929;SDS011;8064;51.142;4.780;2024-03-02T10:21:43;4.75;;;1.13;;
15929;SDS011;8064;51.142;4.780;2024-03-02T10:24:10;5.68;;;1.52;;
15929;SDS011;8064;51.142;4.780;2024-03-02T10:26:36;3.30;;;1.00;;
15929;SDS011;8064;51.142;4.780;2024-03-02T10:29:02;5.85;;;1.35;;
15929;SDS011;8064;51.142;4.780;2024-03-02T10:31:28;4.97;;;1.65;;
15929;SDS011;8064;51.142;4.780;2024-03-02T10:33:54;3.03;;;1.35;;
15929;SDS011;8064;51.142;4.780;2024-03-02T10:36:20;5.93;;;1.30;;
15929;SDS011;8064;51.142;4.780;2024-03-02T10:38:46;3.60;;;0.95;;
15929;SDS011;8064;51.142;4.780;2024-03-02T10:41:17;4.00;;;1.40;;
15929;SDS011;8064;51.142;4.780;2024-03-02T10:43:44;2.95;;;1.10;;
15929;SDS011;8064;51.142;4.780;2024-03-02T10:46:11;5.03;;;1.33;;
15929;SDS011;8064;51.142;4.780;2024-03-02T10:48:39;3.95;;;1.38;;
15929;SDS011;8064;51.142;4.780;2024-03-02T10:51:08;4.70;;;1.33;;
15929;SDS011;8064;51.142;4.780;2024-03-02T10:53:33;4.20;;;1.20;;
15929;SDS011;8064;51.142;4.780;2024-03-02T10:55:59;3.38;;;1.30;;
15929;SDS011;8064;51.142;4.780;2024-03-02T10:58:27;3.45;;;0.90;;
15929;SDS011;8064;51.142;4.780;2024-03-02T11:00:59;2.85;;;1.30;;
15929;SDS011;8064;51.142;4.780;2024-03-02T11:03:29;3.42;;;1.33;;
15929;SDS011;8064;51.142;4.780;2024-03-02T11:05:59;5.82;;;1.40;;
15929;SDS011;8064;51.142;4.780;2024-03-02T11:08:31;3.55;;;1.00;;
15929;SDS011;8064;51.142;4.780;2024-03-02T11:11:04;4.70;;;1.40;;
15929;SDS011;8064;51.142;4.780;2024-03-02T11:13:36;2.50;;;1.20;;
15929;SDS011;8064;51.142;4.780;2024-03-02T11:16:06;3.60;;;1.23;;
15929;SDS011;8064;51.142;4.780;2024-03-02T11:18:43;3.15;;;1.25;;
15929;SDS011;8064;51.142;4.780;2024-03-02T11:21:10;2.72;;;1.10;;
15929;SDS011;8064;51.142;4.780;2024-03-02T11:23:36;4.82;;;1.20;;
15929;SDS011;8064;51.142;4.780;2024-03-02T11:26:21;4.65;;;1.42;;
15929;SDS011;8064;51.142;4.780;2024-03-02T11:28:49;3.25;;;1.10;;
15929;SDS011;8064;51.142;4.780;2024-03-02T11:31:14;4.25;;;0.93;;
15929;SDS011;8064;51.142;4.780;2024-03-02T11:33:40;2.60;;;1.02;;
15929;SDS011;8064;51.142;4.780;2024-03-02T11:36:06;2.97;;;0.95;;
15929;SDS011;8064;51.142;4.780;2024-03-02T11:38:33;4.70;;;0.98;;
15929;SDS011;8064;51.142;4.780;2024-03-02T11:41:00;1.58;;;0.60;;
15929;SDS011;8064;51.142;4.780;2024-03-02T11:43:28;2.05;;;0.95;;
15929;SDS011;8064;51.142;4.780;2024-03-02T11:46:00;2.20;;;0.73;;
15929;SDS011;8064;51.142;4.780;2024-03-02T11:48:32;6.38;;;1.90;;
15929;SDS011;8064;51.142;4.780;2024-03-02T11:50:58;2.28;;;0.70;;
15929;SDS011;8064;51.142;4.780;2024-03-02T11:53:26;3.42;;;0.82;;
15929;SDS011;8064;51.142;4.780;2024-03-02T11:55:55;2.60;;;0.90;;
15929;SDS011;8064;51.142;4.780;2024-03-02T11:58:21;4.35;;;0.98;;
15929;SDS011;8064;51.142;4.780;2024-03-02T12:00:50;2.65;;;1.08;;
15929;SDS011;8064;51.142;4.780;2024-03-02T12:03:17;4.47;;;0.90;;
15929;SDS011;8064;51.142;4.780;2024-03-02T12:05:42;2.38;;;0.90;;
15929;SDS011;8064;51.142;4.780;2024-03-02T12:08:08;3.95;;;1.02;;
15929;SDS011;8064;51.142;4.780;2024-03-02T12:10:37;3.95;;;0.90;;
15929;SDS011;8064;51.142;4.780;2024-03-02T12:13:04;3.17;;;1.00;;
15929;SDS011;8064;51.142;4.780;2024-03-02T12:15:32;3.50;;;1.30;;
15929;SDS011;8064;51.142;4.780;2024-03-02T12:17:59;3.78;;;1.00;;
15929;SDS011;8064;51.142;4.780;2024-03-02T12:20:27;4.53;;;1.07;;
15929;SDS011;8064;51.142;4.780;2024-03-02T12:22:55;2.95;;;1.15;;
15929;SDS011;8064;51.142;4.780;2024-03-02T12:25:23;2.90;;;1.00;;
15929;SDS011;8064;51.142;4.780;2024-03-02T12:27:50;2.83;;;1.10;;
15929;SDS011;8064;51.142;4.780;2024-03-02T12:30:18;3.13;;;1.00;;
15929;SDS011;8064;51.142;4.780;2024-03-02T12:32:44;2.60;;;0.90;;
15929;SDS011;8064;51.142;4.780;2024-03-02T12:35:11;3.47;;;0.90;;
15929;SDS011;8064;51.142;4.780;2024-03-02T12:37:46;4.67;;;1.33;;
15929;SDS011;8064;51.142;4.780;2024-03-02T12:40:13;2.67;;;1.00;;
15929;SDS011;8064;51.142;4.780;2024-03-02T12:42:40;2.90;;;0.90;;
15929;SDS011;8064;51.142;4.780;2024-03-02T12:45:08;4.33;;;1.00;;
15929;SDS011;8064;51.142;4.780;2024-03-02T12:47:34;4.43;;;1.00;;
15929;SDS011;8064;51.142;4.780;2024-03-02T12:50:00;1.73;;;0.93;;
15929;SDS011;8064;51.142;4.780;2024-03-02T12:52:27;4.60;;;0.90;;
15929;SDS011;8064;51.142;4.780;2024-03-02T12:54:53;2.93;;;0.90;;
15929;SDS011;8064;51.142;4.780;2024-03-02T12:57:25;4.17;;;1.10;;
15929;SDS011;8064;51.142;4.780;2024-03-02T12:59:52;2.37;;;0.90;;
15929;SDS011;8064;51.142;4.780;2024-03-02T13:02:27;3.90;;;1.10;;
15929;SDS011;8064;51.142;4.780;2024-03-02T13:04:54;3.53;;;1.10;;
15929;SDS011;8064;51.142;4.780;2024-03-02T13:07:21;5.33;;;1.00;;
15929;SDS011;8064;51.142;4.780;2024-03-02T13:09:49;4.07;;;0.87;;
15929;SDS011;8064;51.142;4.780;2024-03-02T13:12:16;2.67;;;1.03;;
15929;SDS011;8064;51.142;4.780;2024-03-02T13:14:42;1.90;;;0.83;;
15929;SDS011;8064;51.142;4.780;2024-03-02T13:17:08;2.33;;;0.70;;
15929;SDS011;8064;51.142;4.780;2024-03-02T13:19:34;3.03;;;0.77;;
15929;SDS011;8064;51.142;4.780;2024-03-02T13:22:00;2.50;;;0.70;;
15929;SDS011;8064;51.142;4.780;2024-03-02T13:24:28;3.07;;;0.60;;
15929;SDS011;8064;51.142;4.780;2024-03-02T13:26:55;2.80;;;0.87;;
15929;SDS011;8064;51.142;4.780;2024-03-02T13:29:23;3.13;;;0.80;;
15929;SDS011;8064;51.142;4.780;2024-03-02T13:31:49;2.67;;;0.93;;
15929;SDS011;8064;51.142;4.780;2024-03-02T13:34:15;4.60;;;1.27;;
15929;SDS011;8064;51.142;4.780;2024-03-02T13:36:41;3.07;;;0.90;;
15929;SDS011;8064;51.142;4.780;2024-03-02T13:39:07;1.70;;;0.80;;
15929;SDS011;8064;51.142;4.780;2024-03-02T13:41:35;4.27;;;0.90;;
15929;SDS011;8064;51.142;4.780;2024-03-02T13:44:01;3.10;;;1.20;;
15929;SDS011;8064;51.142;4.780;2024-03-02T13:46:27;1.97;;;0.80;;
15929;SDS011;8064;51.142;4.780;2024-03-02T13:48:54;4.30;;;1.00;;
15929;SDS011;8064;51.142;4.780;2024-03-02T13:51:20;2.13;;;0.80;;
15929;SDS011;8064;51.142;4.780;2024-03-02T13:53:46;2.40;;;0.87;;
15929;SDS011;8064;51.142;4.780;2024-03-02T13:56:12;1.73;;;0.70;;
15929;SDS011;8064;51.142;4.780;2024-03-02T13:58:38;4.37;;;1.00;;
15929;SDS011;8064;51.142;4.780;2024-03-02T14:01:04;2.50;;;0.80;;
15929;SDS011;8064;51.142;4.780;2024-03-02T14:03:30;1.70;;;0.80;;
15929;SDS011;8064;51.142;4.780;2024-03-02T14:05:56;2.13;;;0.87;;
15929;SDS011;8064;51.142;4.780;2024-03-02T14:08:22;3.00;;;0.60;;
15929;SDS011;8064;51.142;4.780;2024-03-02T14:10:48;2.23;;;0.80;;
15929;SDS011;8064;51.142;4.780;2024-03-02T14:13:14;2.50;;;0.70;;
15929;SDS011;8064;51.142;4.780;2024-03-02T14:15:41;3.90;;;0.73;;
15929;SDS011;8064;51.142;4.780;2024-03-02T14:18:07;3.33;;;0.70;;
15929;SDS011;8064;51.142;4.780;2024-03-02T14:20:35;3.23;;;0.60;;
15929;SDS011;8064;51.142;4.780;2024-03-02T14:23:01;2.07;;;0.70;;
15929;SDS011;8064;51.142;4.780;2024-03-02T14:25:28;3.93;;;0.80;;
15929;SDS011;8064;51.142;4.780;2024-03-02T14:27:56;2.83;;;0.70;;
15929;SDS011;8064;51.142;4.780;2024-03-02T14:30:23;2.23;;;0.63;;
15929;SDS011;8064;51.142;4.780;2024-03-02T14:32:49;2.00;;;0.63;;
15929;SDS011;8064;51.142;4.780;2024-03-02T14:35:15;2.90;;;0.70;;
15929;SDS011;8064;51.142;4.780;2024-03-02T14:37:41;2.07;;;0.80;;
15929;SDS011;8064;51.142;4.780;2024-03-02T14:40:07;1.90;;;0.67;;
15929;SDS011;8064;51.142;4.780;2024-03-02T14:42:35;1.77;;;0.50;;
15929;SDS011;8064;51.142;4.780;2024-03-02T14:45:01;3.37;;;0.93;;
15929;SDS011;8064;51.142;4.780;2024-03-02T14:47:29;1.73;;;0.60;;
15929;SDS011;8064;51.142;4.780;2024-03-02T14:49:57;2.67;;;0.70;;
15929;SDS011;8064;51.142;4.780;2024-03-02T14:52:23;2.20;;;0.77;;
15929;SDS011;8064;51.142;4.780;2024-03-02T14:54:49;2.53;;;0.87;;
15929;SDS011;8064;51.142;4.780;2024-03-02T14:57:14;2.63;;;0.70;;
15929;SDS011;8064;51.142;4.780;2024-03-02T14:59:40;2.00;;;0.80;;
15929;SDS011;8064;51.142;4.780;2024-03-02T15:02:07;2.27;;;0.90;;
15929;SDS011;8064;51.142;4.780;2024-03-02T15:04:33;1.70;;;0.67;;